Time;durP1;ratioP1;P1;durP2;ratioP2;P2;SDS_P1;SDS_P2;PMS_P1;PMS_P2;Temp;Humidity;BMP_temperature;BMP_pressure;BME280_temperature;BME280_humidity;BME280_pressure;Samples;Min_cycle;Max_cycle;Signal;HPM_P1;HPM_P2
2021/01/01 00:00:14;;;;;;;;;;;3.50;82.90;;;;;;5090261;28;19977;-67
2021/01/01 00:02:41;;;;;;;;;;;3.50;82.80;;;;;;5090513;28;19924;-70
2021/01/01 00:05:07;;;;;;;;;;;3.60;83.30;;;;;;5072491;28;19932;-70
2021/01/01 00:07:35;;;;;;;;;;;3.60;82.70;;;;;;5072329;28;20392;-72
2021/01/01 00:10:01;;;;;;;;;;;3.50;82.60;;;;;;5090130;28;20222;-70
2021/01/01 00:12:27;;;;;;;;;;;3.60;82.30;;;;;;5090319;28;19924;-71
2021/01/01 00:14:53;;;;;;;;;;;3.50;82.50;;;;;;5090362;28;20163;-72
2021/01/01 00:17:20;;;;;;;;;;;3.60;82.30;;;;;;5073813;28;19948;-71
2021/01/01 00:19:46;;;;;;;;;;;3.60;82.30;;;;;;5069726;28;19982;-71
2021/01/01 00:22:12;;;;;;;;;;;3.40;83.30;;;;;;5069941;28;19929;-71
2021/01/01 00:24:38;;;;;;;;;;;3.20;84.70;;;;;;5070025;28;20103;-71
2021/01/01 00:27:05;;;;;;;;;;;3.30;83.40;;;;;;5081251;28;19943;-72
2021/01/01 00:29:31;;;;;;;;;;;3.40;82.90;;;;;;5090540;28;19993;-70
2021/01/01 00:31:58;;;;;;;;;;;3.20;83.60;;;;;;5087973;28;19924;-70
2021/01/01 00:34:24;;;;;;;;;;;3.50;83.10;;;;;;5069898;28;19986;-74
2021/01/01 00:36:50;;;;;;;;;;;3.60;81.70;;;;;;5071017;28;19928;-71
2021/01/01 00:39:17;;;;;;;;;;;3.70;82.00;;;;;;5089973;28;19970;-69
2021/01/01 00:41:43;;;;;;;;;;;3.50;82.40;;;;;;5080709;28;20393;-70
2021/01/01 00:44:11;;;;;;;;;;;3.40;82.20;;;;;;5069991;28;19932;-72
2021/01/01 00:46:37;;;;;;;;;;;3.50;82.00;;;;;;5069473;28;20431;-69
2021/01/01 00:49:03;;;;;;;;;;;3.50;82.00;;;;;;5078959;28;19932;-71
2021/01/01 00:51:31;;;;;;;;;;;3.30;83.70;;;;;;5092687;28;20616;-72
2021/01/01 00:53:58;;;;;;;;;;;3.40;83.30;;;;;;5095732;28;19924;-71
2021/01/01 00:56:25;;;;;;;;;;;3.40;83.50;;;;;;5095547;28;19924;-71
2021/01/01 00:58:52;;;;;;;;;;;3.30;84.20;;;;;;5095298;28;19924;-73
2021/01/01 01:01:21;;;;;;;;;;;3.30;84.20;;;;;;5094935;28;19947;-71
2021/01/01 01:03:48;;;;;;;;;;;3.30;84.40;;;;;;5093867;28;19924;-70
2021/01/01 01:06:19;;;;;;;;;;;3.30;84.80;;;;;;5094390;28;19924;-75
2021/01/01 01:08:45;;;;;;;;;;;3.30;84.10;;;;;;5094303;28;20334;-72
2021/01/01 01:11:12;;;;;;;;;;;3.30;84.00;;;;;;5094815;28;19990;-71
2021/01/01 01:13:38;;;;;;;;;;;3.20;84.00;;;;;;5093496;28;19954;-71
2021/01/01 01:16:05;;;;;;;;;;;3.30;84.70;;;;;;5093432;28;20378;-71
2021/01/01 01:18:32;;;;;;;;;;;3.20;84.30;;;;;;5093940;28;19935;-69
2021/01/01 01:20:59;;;;;;;;;;;3.30;84.40;;;;;;5093782;28;19924;-72
2021/01/01 01:23:25;;;;;;;;;;;3.40;83.70;;;;;;5094269;28;19924;-72
2021/01/01 01:25:51;;;;;;;;;;;3.40;84.20;;;;;;5094955;28;19931;-71
2021/01/01 01:28:18;;;;;;;;;;;3.60;83.60;;;;;;5113651;28;19927;-72
2021/01/01 01:30:44;;;;;;;;;;;3.70;83.10;;;;;;5113942;28;19928;-72
2021/01/01 01:33:11;;;;;;;;;;;3.70;83.30;;;;;;5101414;28;19949;-71
2021/01/01 01:35:37;;;;;;;;;;;3.90;82.30;;;;;;5093014;28;19924;-71
2021/01/01 01:38:03;;;;;;;;;;;4.00;81.90;;;;;;5104730;28;20166;-71
2021/01/01 01:40:30;;;;;;;;;;;3.90;82.00;;;;;;5113907;28;20391;-71
2021/01/01 01:42:56;;;;;;;;;;;3.90;82.10;;;;;;5094211;28;19924;-71
2021/01/01 01:45:23;;;;;;;;;;;3.80;82.70;;;;;;5075344;28;20342;-72
2021/01/01 01:47:49;;;;;;;;;;;3.70;83.00;;;;;;5093564;28;20277;-71
2021/01/01 01:50:16;;;;;;;;;;;3.60;84.10;;;;;;5093552;28;19924;-66
2021/01/01 01:52:43;;;;;;;;;;;3.60;83.30;;;;;;5093195;28;19931;-72
2021/01/01 01:55:10;;;;;;;;;;;3.60;84.70;;;;;;5093437;28;19931;-71
2021/01/01 01:57:36;;;;;;;;;;;3.70;84.10;;;;;;5093423;28;20291;-71
2021/01/01 02:00:17;;;;;;;;;;;3.60;83.20;;;;;;5075238;28;20288;-75
2021/01/01 02:02:43;;;;;;;;;;;3.50;83.10;;;;;;5093180;28;19924;-72
2021/01/01 02:05:12;;;;;;;;;;;3.70;83.70;;;;;;5092800;28;20403;-75
2021/01/01 02:07:39;;;;;;;;;;;3.50;83.50;;;;;;5092743;28;19927;-72
2021/01/01 02:10:06;;;;;;;;;;;3.60;83.30;;;;;;5092563;28;19932;-71
2021/01/01 02:12:32;;;;;;;;;;;3.60;83.20;;;;;;5093023;28;19924;-72
2021/01/01 02:14:58;;;;;;;;;;;3.60;83.00;;;;;;5092829;28;19924;-72
2021/01/01 02:17:25;;;;;;;;;;;3.60;83.40;;;;;;5092061;28;20431;-68
2021/01/01 02:20:04;;;;;;;;;;;3.50;83.20;;;;;;5092428;28;19924;-74
2021/01/01 02:22:40;;;;;;;;;;;3.50;83.60;;;;;;5091986;28;19975;-71
2021/01/01 02:25:08;;;;;;;;;;;3.60;83.70;;;;;;5092422;28;19986;-72
2021/01/01 02:27:34;;;;;;;;;;;3.70;82.70;;;;;;5107855;28;19974;-74
2021/01/01 02:30:12;;;;;;;;;;;3.60;83.40;;;;;;5112560;28;20292;-71
2021/01/01 02:32:39;;;;;;;;;;;3.50;84.00;;;;;;5104748;28;19925;-72
2021/01/01 02:35:05;;;;;;;;;;;3.50;83.90;;;;;;5091737;28;19931;-71
2021/01/01 02:37:32;;;;;;;;;;;3.50;84.40;;;;;;5098843;28;19928;-71
2021/01/01 02:39:58;;;;;;;;;;;3.50;83.90;;;;;;5112293;28;19923;-68
2021/01/01 02:42:24;;;;;;;;;;;3.60;84.00;;;;;;5097520;28;19924;-74
2021/01/01 02:44:50;;;;;;;;;;;3.70;83.90;;;;;;5092435;28;19928;-72
2021/01/01 02:47:17;;;;;;;;;;;3.70;83.30;;;;;;5092039;28;20422;-69
2021/01/01 02:49:43;;;;;;;;;;;3.60;83.50;;;;;;5091845;28;19923;-70
2021/01/01 02:52:10;;;;;;;;;;;3.60;84.00;;;;;;5110147;28;19924;-73
2021/01/01 02:54:36;;;;;;;;;;;3.60;84.40;;;;;;5116885;28;19924;-72
2021/01/01 02:57:02;;;;;;;;;;;3.60;84.80;;;;;;5101243;28;20265;-72
2021/01/01 02:59:29;;;;;;;;;;;3.60;84.30;;;;;;5092957;28;19928;-73
2021/01/01 03:01:55;;;;;;;;;;;3.50;83.80;;;;;;5091406;28;19931;-71
2021/01/01 03:04:22;;;;;;;;;;;3.60;83.60;;;;;;5091098;28;19930;-72
2021/01/01 03:06:48;;;;;;;;;;;3.70;83.70;;;;;;5091512;28;19924;-72
2021/01/01 03:09:15;;;;;;;;;;;3.60;83.60;;;;;;5091292;28;20304;-70
2021/01/01 03:11:41;;;;;;;;;;;3.60;82.80;;;;;;5091218;28;19931;-72
2021/01/01 03:14:07;;;;;;;;;;;3.70;82.40;;;;;;5090895;28;19932;-72
2021/01/01 03:16:34;;;;;;;;;;;3.60;82.30;;;;;;5100769;28;19932;-70
2021/01/01 03:19:00;;;;;;;;;;;3.70;83.10;;;;;;5111378;28;19931;-71
2021/01/01 03:21:26;;;;;;;;;;;3.60;82.80;;;;;;5111376;28;19923;-72
2021/01/01 03:23:52;;;;;;;;;;;3.50;83.70;;;;;;5111533;28;19935;-67
2021/01/01 03:26:19;;;;;;;;;;;3.40;84.10;;;;;;5106378;28;20219;-72
2021/01/01 03:28:45;;;;;;;;;;;3.40;84.10;;;;;;5091522;28;19924;-72
2021/01/01 03:31:11;;;;;;;;;;;3.40;84.90;;;;;;5091959;28;19928;-71
2021/01/01 03:33:37;;;;;;;;;;;3.40;84.00;;;;;;5095925;28;19924;-71
2021/01/01 03:36:04;;;;;;;;;;;3.50;84.30;;;;;;5092944;28;19944;-72
2021/01/01 03:38:31;;;;;;;;;;;3.50;83.60;;;;;;5106766;28;19927;-72
2021/01/01 03:40:59;;;;;;;;;;;3.70;83.20;;;;;;5108461;28;19923;-71
2021/01/01 03:43:25;;;;;;;;;;;3.80;82.10;;;;;;5090590;28;20318;-71
2021/01/01 03:45:51;;;;;;;;;;;3.90;81.70;;;;;;5090746;28;19931;-72
2021/01/01 03:48:18;;;;;;;;;;;3.90;81.60;;;;;;5090519;28;20122;-68
2021/01/01 03:50:45;;;;;;;;;;;3.90;81.20;;;;;;5090514;28;19931;-68
2021/01/01 03:53:11;;;;;;;;;;;3.80;81.70;;;;;;5090913;28;19924;-72
2021/01/01 03:55:38;;;;;;;;;;;3.70;83.20;;;;;;5090417;28;19935;-73
2021/01/01 03:58:04;;;;;;;;;;;3.50;83.70;;;;;;5090829;28;19924;-71
2021/01/01 04:00:31;;;;;;;;;;;3.40;83.80;;;;;;5073100;28;19977;-72
2021/01/01 04:03:00;;;;;;;;;;;3.30;84.70;;;;;;5090276;28;20388;-75
2021/01/01 04:05:26;;;;;;;;;;;3.40;84.40;;;;;;5090422;28;20417;-74
2021/01/01 04:07:52;;;;;;;;;;;3.40;84.20;;;;;;5090514;28;19958;-71
2021/01/01 04:10:19;;;;;;;;;;;3.50;84.30;;;;;;5089987;28;19978;-71
2021/01/01 04:12:45;;;;;;;;;;;3.50;84.60;;;;;;5090301;28;19985;-71
2021/01/01 04:15:11;;;;;;;;;;;3.60;84.00;;;;;;5090525;28;19928;-72
2021/01/01 04:17:38;;;;;;;;;;;3.50;84.10;;;;;;5090425;28;19923;-72
2021/01/01 04:20:04;;;;;;;;;;;3.50;83.50;;;;;;5090193;28;19931;-71
2021/01/01 04:22:31;;;;;;;;;;;3.60;83.60;;;;;;5090409;28;19924;-72
2021/01/01 04:24:58;;;;;;;;;;;3.60;84.10;;;;;;5090091;28;19924;-72
2021/01/01 04:27:24;;;;;;;;;;;3.80;83.60;;;;;;5108334;28;19923;-71
2021/01/01 04:29:51;;;;;;;;;;;3.90;82.50;;;;;;5114439;28;20403;-71
2021/01/01 04:32:17;;;;;;;;;;;4.00;81.60;;;;;;5109768;28;20455;-72
2021/01/01 04:34:43;;;;;;;;;;;3.90;81.70;;;;;;5094243;28;19931;-72
2021/01/01 04:37:09;;;;;;;;;;;4.00;81.60;;;;;;5097581;28;20452;-71
2021/01/01 04:39:36;;;;;;;;;;;4.20;80.60;;;;;;5114931;28;20352;-69
2021/01/01 04:42:03;;;;;;;;;;;4.20;81.70;;;;;;5102693;28;19924;-71
2021/01/01 04:44:29;;;;;;;;;;;4.10;81.20;;;;;;5094242;28;19924;-72
2021/01/01 04:46:56;;;;;;;;;;;4.10;81.20;;;;;;5094274;28;19932;-72
2021/01/01 04:49:22;;;;;;;;;;;4.20;80.80;;;;;;5093629;28;19969;-72
2021/01/01 04:51:49;;;;;;;;;;;4.20;80.50;;;;;;5093708;28;20303;-72
2021/01/01 04:54:16;;;;;;;;;;;4.30;80.30;;;;;;5093877;28;19924;-72
2021/01/01 04:56:46;;;;;;;;;;;4.30;80.10;;;;;;5093799;28;19978;-73
2021/01/01 04:59:13;;;;;;;;;;;4.20;80.90;;;;;;5093898;28;19924;-74
2021/01/01 05:01:43;;;;;;;;;;;4.00;81.20;;;;;;5075705;28;19924;-71
2021/01/01 05:04:10;;;;;;;;;;;4.10;81.80;;;;;;5094559;28;20117;-71
2021/01/01 05:06:38;;;;;;;;;;;4.10;82.40;;;;;;5093632;28;20434;-70
2021/01/01 05:09:05;;;;;;;;;;;4.20;81.80;;;;;;5093826;28;19932;-70
2021/01/01 05:11:31;;;;;;;;;;;4.30;81.00;;;;;;5093663;28;19924;-69
2021/01/01 05:13:58;;;;;;;;;;;4.20;81.10;;;;;;5093951;28;19939;-72
2021/01/01 05:16:25;;;;;;;;;;;4.30;80.70;;;;;;5094385;28;19932;-72
2021/01/01 05:18:52;;;;;;;;;;;4.30;80.80;;;;;;5094411;28;19924;-71
2021/01/01 05:21:25;;;;;;;;;;;4.20;81.90;;;;;;5094281;28;19924;-70
2021/01/01 05:23:53;;;;;;;;;;;4.00;82.90;;;;;;5094081;28;19969;-75
2021/01/01 05:26:19;;;;;;;;;;;3.90;83.30;;;;;;5098531;28;19924;-71
2021/01/01 05:28:48;;;;;;;;;;;3.80;84.60;;;;;;5113701;28;20383;-70
2021/01/01 05:31:16;;;;;;;;;;;3.80;84.30;;;;;;5113528;28;19930;-71
2021/01/01 05:33:42;;;;;;;;;;;3.70;84.30;;;;;;5096995;28;19928;-68
2021/01/01 05:36:09;;;;;;;;;;;3.80;84.60;;;;;;5093677;28;19969;-69
2021/01/01 05:38:36;;;;;;;;;;;3.90;84.20;;;;;;5107509;28;19923;-71
2021/01/01 05:41:03;;;;;;;;;;;3.90;83.80;;;;;;5110239;28;19924;-69
2021/01/01 05:43:29;;;;;;;;;;;4.00;82.80;;;;;;5093417;28;19932;-65
2021/01/01 05:46:08;;;;;;;;;;;4.20;83.10;;;;;;5093444;28;20372;-67
2021/01/01 05:48:35;;;;;;;;;;;4.30;82.50;;;;;;5092712;28;19924;-66
2021/01/01 05:51:07;;;;;;;;;;;4.30;81.90;;;;;;5092797;28;20342;-71
2021/01/01 05:53:33;;;;;;;;;;;4.30;81.70;;;;;;5092860;28;20018;-67
2021/01/01 05:56:07;;;;;;;;;;;4.20;82.00;;;;;;5092907;28;19932;-75
2021/01/01 05:58:33;;;;;;;;;;;4.20;82.50;;;;;;5092478;28;19924;-71
2021/01/01 06:01:01;;;;;;;;;;;4.30;82.10;;;;;;5092442;28;19939;-72
2021/01/01 06:03:32;;;;;;;;;;;4.20;82.20;;;;;;5092600;28;20400;-72
2021/01/01 06:06:00;;;;;;;;;;;4.00;83.10;;;;;;5093574;28;19924;-72
2021/01/01 06:08:27;;;;;;;;;;;4.00;84.30;;;;;;5093937;28;20002;-72
2021/01/01 06:10:58;;;;;;;;;;;3.90;84.30;;;;;;5094225;28;19928;-71
2021/01/01 06:13:29;;;;;;;;;;;3.90;84.80;;;;;;5094507;28;19924;-70
2021/01/01 06:15:56;;;;;;;;;;;4.10;83.90;;;;;;5093785;28;19928;-74
2021/01/01 06:18:33;;;;;;;;;;;4.10;83.80;;;;;;5093000;28;19954;-65
2021/01/01 06:21:08;;;;;;;;;;;3.90;84.40;;;;;;5092245;28;19931;-70
2021/01/01 06:23:38;;;;;;;;;;;3.90;84.80;;;;;;5092261;28;19924;-69
2021/01/01 06:26:08;;;;;;;;;;;4.00;84.50;;;;;;5094977;28;20397;-65
2021/01/01 06:28:35;;;;;;;;;;;4.20;83.00;;;;;;5112880;28;20337;-70
2021/01/01 06:31:02;;;;;;;;;;;4.30;82.80;;;;;;5112496;28;19923;-69
2021/01/01 06:33:30;;;;;;;;;;;4.30;82.70;;;;;;5097124;28;19927;-70
2021/01/01 06:35:56;;;;;;;;;;;4.40;82.40;;;;;;5091928;28;19927;-68
2021/01/01 06:38:51;;;;;;;;;;;4.50;82.40;;;;;;5106036;28;19924;-70
2021/01/01 06:41:36;;;;;;;;;;;4.60;82.10;;;;;;5104401;28;19975;-69
2021/01/01 06:44:02;;;;;;;;;;;4.40;81.20;;;;;;5092165;28;19993;-70
2021/01/01 06:46:33;;;;;;;;;;;4.30;81.80;;;;;;5092343;28;19989;-70
2021/01/01 06:48:59;;;;;;;;;;;4.20;83.00;;;;;;5091812;28;19979;-69
2021/01/01 06:51:27;;;;;;;;;;;4.20;82.90;;;;;;5092285;28;20388;-71
2021/01/01 06:53:55;;;;;;;;;;;4.20;82.70;;;;;;5092056;28;19985;-68
2021/01/01 06:56:21;;;;;;;;;;;4.20;83.10;;;;;;5091423;28;19977;-72
2021/01/01 06:58:47;;;;;;;;;;;4.20;83.20;;;;;;5073441;28;19970;-73
2021/01/01 07:01:15;;;;;;;;;;;4.30;83.10;;;;;;5091554;28;19929;-64
2021/01/01 07:03:41;;;;;;;;;;;4.40;82.70;;;;;;5091318;28;19947;-68
2021/01/01 07:06:08;;;;;;;;;;;4.20;82.90;;;;;;5091539;28;19924;-68
2021/01/01 07:08:43;;;;;;;;;;;4.30;82.30;;;;;;5091316;28;20408;-69
2021/01/01 07:11:09;;;;;;;;;;;4.50;81.90;;;;;;5091289;28;19946;-69
2021/01/01 07:13:52;;;;;;;;;;;4.40;82.20;;;;;;5091264;28;19935;-67
2021/01/01 07:16:21;;;;;;;;;;;4.20;82.00;;;;;;5091169;28;19924;-70
2021/01/01 07:18:48;;;;;;;;;;;4.30;82.60;;;;;;5091523;28;19931;-69
2021/01/01 07:21:16;;;;;;;;;;;4.20;81.80;;;;;;5091316;28;20019;-70
2021/01/01 07:23:43;;;;;;;;;;;4.20;82.40;;;;;;5090924;28;19970;-65
2021/01/01 07:26:10;;;;;;;;;;;4.20;82.40;;;;;;5094460;28;19924;-69
2021/01/01 07:28:40;;;;;;;;;;;4.10;82.80;;;;;;5111171;28;19928;-70
2021/01/01 07:31:07;;;;;;;;;;;4.20;82.20;;;;;;5093612;28;19924;-70
2021/01/01 07:33:34;;;;;;;;;;;4.20;82.50;;;;;;5115371;28;19924;-70
2021/01/01 07:36:01;;;;;;;;;;;4.20;82.60;;;;;;5117409;28;19946;-71
2021/01/01 07:38:30;;;;;;;;;;;4.20;82.20;;;;;;5101240;28;20319;-71
2021/01/01 07:40:56;;;;;;;;;;;4.20;81.90;;;;;;5094472;28;19982;-70
2021/01/01 07:43:22;;;;;;;;;;;4.20;82.60;;;;;;5090570;28;19924;-70
2021/01/01 07:45:49;;;;;;;;;;;4.30;81.60;;;;;;5090900;28;20338;-69
2021/01/01 07:48:15;;;;;;;;;;;4.20;83.00;;;;;;5091006;28;19939;-70
2021/01/01 07:50:41;;;;;;;;;;;4.20;82.50;;;;;;5070534;28;19931;-69
2021/01/01 07:53:09;;;;;;;;;;;4.20;83.60;;;;;;5070703;28;19929;-70
2021/01/01 07:55:36;;;;;;;;;;;4.10;82.60;;;;;;5070289;28;20187;-67
2021/01/01 07:58:28;;;;;;;;;;;4.00;82.50;;;;;;5053007;28;20401;-71
2021/01/01 08:01:02;;;;;;;;;;;4.00;82.70;;;;;;5065844;28;20300;-69
2021/01/01 08:03:31;;;;;;;;;;;3.90;83.70;;;;;;5070667;28;20400;-70
2021/01/01 08:05:58;;;;;;;;;;;3.90;82.90;;;;;;5071215;28;19925;-70
2021/01/01 08:08:24;;;;;;;;;;;3.90;83.10;;;;;;5071000;28;19925;-69
2021/01/01 08:10:51;;;;;;;;;;;3.90;82.70;;;;;;5071487;28;19946;-70
2021/01/01 08:13:22;;;;;;;;;;;3.80;82.90;;;;;;5071671;28;19977;-69
2021/01/01 08:15:49;;;;;;;;;;;3.90;82.40;;;;;;5071398;28;20327;-72
2021/01/01 08:18:18;;;;;;;;;;;4.10;81.30;;;;;;5071556;28;19924;-66
2021/01/01 08:20:46;;;;;;;;;;;4.00;81.70;;;;;;5071684;28;19928;-67
2021/01/01 08:23:17;;;;;;;;;;;4.10;81.70;;;;;;5071809;28;20270;-72
2021/01/01 08:25:44;;;;;;;;;;;4.10;80.90;;;;;;5071302;28;19936;-71
2021/01/01 08:28:14;;;;;;;;;;;4.20;80.60;;;;;;5071766;28;19929;-70
2021/01/01 08:30:40;;;;;;;;;;;4.20;80.20;;;;;;5071521;28;19924;-69
2021/01/01 08:33:07;;;;;;;;;;;4.30;79.20;;;;;;5075084;28;20412;-72
2021/01/01 08:35:34;;;;;;;;;;;4.40;79.30;;;;;;5071664;28;19924;-71
2021/01/01 08:38:33;;;;;;;;;;;4.40;78.30;;;;;;5080660;28;19924;-69
2021/01/01 08:41:00;;;;;;;;;;;4.50;78.00;;;;;;5031918;28;19939;-67
2021/01/01 08:43:27;;;;;;;;;;;4.60;77.70;;;;;;5071372;28;19924;-69
2021/01/01 08:45:53;;;;;;;;;;;4.70;78.00;;;;;;5072438;28;19925;-65
2021/01/01 08:48:20;;;;;;;;;;;4.80;77.00;;;;;;5072162;28;20007;-72
2021/01/01 08:50:50;;;;;;;;;;;5.00;77.20;;;;;;5091166;28;19936;-70
2021/01/01 08:53:17;;;;;;;;;;;4.90;76.30;;;;;;5090656;28;20342;-69
2021/01/01 08:55:44;;;;;;;;;;;5.00;76.60;;;;;;5090000;28;19924;-70
2021/01/01 08:58:11;;;;;;;;;;;5.20;75.90;;;;;;5090304;28;19924;-71
2021/01/01 09:00:39;;;;;;;;;;;5.20;75.30;;;;;;5089998;28;20356;-70
2021/01/01 09:03:05;;;;;;;;;;;5.50;74.50;;;;;;5090290;28;19993;-70
2021/01/01 09:05:32;;;;;;;;;;;5.50;73.30;;;;;;5089941;28;19924;-70
2021/01/01 09:08:06;;;;;;;;;;;5.60;73.70;;;;;;5089859;28;19931;-68
2021/01/01 09:10:32;;;;;;;;;;;5.70;73.10;;;;;;5090187;28;19924;-68
2021/01/01 09:12:58;;;;;;;;;;;5.70;72.90;;;;;;5092550;28;19947;-70
2021/01/01 09:15:29;;;;;;;;;;;5.70;72.60;;;;;;5093548;28;19928;-69
2021/01/01 09:18:08;;;;;;;;;;;5.80;72.00;;;;;;5093695;28;19928;-67
2021/01/01 09:20:35;;;;;;;;;;;5.90;72.30;;;;;;5094025;28;19924;-70
2021/01/01 09:23:02;;;;;;;;;;;5.90;71.30;;;;;;5093420;28;19987;-69
2021/01/01 09:25:30;;;;;;;;;;;6.10;70.80;;;;;;5093585;28;20374;-65
2021/01/01 09:27:57;;;;;;;;;;;6.20;70.50;;;;;;5112151;28;19923;-65
2021/01/01 09:30:24;;;;;;;;;;;6.20;70.20;;;;;;5114576;28;19931;-73
2021/01/01 09:32:53;;;;;;;;;;;6.30;69.70;;;;;;5105395;28;20395;-74
2021/01/01 09:35:19;;;;;;;;;;;6.20;70.70;;;;;;5094186;28;19931;-70
2021/01/01 09:37:50;;;;;;;;;;;6.30;70.80;;;;;;5102778;28;20018;-69
2021/01/01 09:40:17;;;;;;;;;;;6.40;67.80;;;;;;5113947;28;20411;-70
2021/01/01 09:42:43;;;;;;;;;;;6.20;70.00;;;;;;5096782;28;19924;-71
2021/01/01 09:45:10;;;;;;;;;;;6.20;68.10;;;;;;5094608;28;19931;-69
2021/01/01 09:47:37;;;;;;;;;;;6.10;69.20;;;;;;5094078;28;19924;-69
2021/01/01 09:50:04;;;;;;;;;;;6.00;69.40;;;;;;5096366;28;19928;-70
2021/01/01 09:52:31;;;;;;;;;;;5.70;69.40;;;;;;5097730;28;19939;-72
2021/01/01 09:54:57;;;;;;;;;;;5.70;70.60;;;;;;5097654;28;19942;-74
2021/01/01 09:57:23;;;;;;;;;;;5.90;69.50;;;;;;5096696;28;19924;-72
2021/01/01 09:59:49;;;;;;;;;;;5.90;69.60;;;;;;5097514;28;19924;-74
2021/01/01 10:02:16;;;;;;;;;;;6.00;69.30;;;;;;5097181;28;19932;-76
2021/01/01 10:04:42;;;;;;;;;;;6.00;68.60;;;;;;5096770;28;19954;-74
2021/01/01 10:07:08;;;;;;;;;;;6.00;69.40;;;;;;5097951;28;20005;-72
2021/01/01 10:09:34;;;;;;;;;;;6.00;67.90;;;;;;5097502;28;19977;-71
2021/01/01 10:12:05;;;;;;;;;;;5.90;67.40;;;;;;5097393;28;20372;-69
2021/01/01 10:14:32;;;;;;;;;;;5.90;68.50;;;;;;5096710;28;20023;-72
2021/01/01 10:16:58;;;;;;;;;;;6.10;67.60;;;;;;5095494;28;19927;-72
2021/01/01 10:19:24;;;;;;;;;;;6.00;68.30;;;;;;5096625;28;19924;-71
2021/01/01 10:21:51;;;;;;;;;;;6.10;68.30;;;;;;5094993;28;20380;-70
2021/01/01 10:24:17;;;;;;;;;;;6.10;68.60;;;;;;5091782;28;19924;-70
2021/01/01 10:26:47;;;;;;;;;;;6.10;68.20;;;;;;5100738;28;19932;-70
2021/01/01 10:29:20;;;;;;;;;;;6.30;67.90;;;;;;5112410;28;19970;-70
2021/01/01 10:31:47;;;;;;;;;;;6.30;67.30;;;;;;5111645;28;19924;-72
2021/01/01 10:34:14;;;;;;;;;;;6.40;66.00;;;;;;5091487;28;19931;-70
2021/01/01 10:36:40;;;;;;;;;;;6.50;66.10;;;;;;5091752;28;19935;-69
2021/01/01 10:39:07;;;;;;;;;;;6.60;67.00;;;;;;5111844;28;20045;-70
2021/01/01 10:41:33;;;;;;;;;;;6.60;66.50;;;;;;5104472;28;20188;-70
2021/01/01 10:44:00;;;;;;;;;;;6.50;66.00;;;;;;5092031;28;19947;-69
2021/01/01 10:46:26;;;;;;;;;;;6.40;66.90;;;;;;5092179;28;19950;-70
2021/01/01 10:48:52;;;;;;;;;;;6.40;67.10;;;;;;5092076;28;19931;-71
2021/01/01 10:51:19;;;;;;;;;;;6.30;66.20;;;;;;5091974;28;20441;-70
2021/01/01 10:53:46;;;;;;;;;;;6.40;66.50;;;;;;5092585;28;19928;-70
2021/01/01 10:56:18;;;;;;;;;;;6.60;66.20;;;;;;5091883;28;19977;-70
2021/01/01 10:58:46;;;;;;;;;;;6.60;65.80;;;;;;5091427;28;20296;-69
2021/01/01 11:01:17;;;;;;;;;;;6.70;66.00;;;;;;5091792;28;20369;-71
2021/01/01 11:03:43;;;;;;;;;;;6.70;65.50;;;;;;5091381;28;19977;-69
2021/01/01 11:06:09;;;;;;;;;;;6.80;65.40;;;;;;5091073;28;20395;-69
2021/01/01 11:08:37;;;;;;;;;;;6.80;65.40;;;;;;5091267;28;19931;-70
2021/01/01 11:11:04;;;;;;;;;;;6.60;66.70;;;;;;5090856;28;20391;-70
2021/01/01 11:13:31;;;;;;;;;;;6.40;66.70;;;;;;5091262;28;19924;-70
2021/01/01 12:24:48;;;;;;;;;;;6.60;62.30;;;;;;5090063;28;20338;-69
2021/01/01 12:27:16;;;;;;;;;;;6.40;64.30;;;;;;5102770;28;19924;-72
2021/01/01 12:29:42;;;;;;;;;;;6.40;64.40;;;;;;5110574;28;19949;-71
2021/01/01 12:32:10;;;;;;;;;;;6.40;64.90;;;;;;5106699;28;19924;-70
2021/01/01 12:34:38;;;;;;;;;;;6.30;63.60;;;;;;5090015;28;20387;-70
2021/01/01 12:37:04;;;;;;;;;;;6.40;62.70;;;;;;5090075;28;19924;-72
2021/01/01 12:39:31;;;;;;;;;;;6.60;62.70;;;;;;5090025;28;19932;-70
2021/01/01 12:41:57;;;;;;;;;;;6.50;62.10;;;;;;5100769;28;19928;-70
2021/01/01 12:44:24;;;;;;;;;;;6.70;63.10;;;;;;5110240;28;19967;-70
2021/01/01 12:46:51;;;;;;;;;;;6.80;63.30;;;;;;5111520;28;19938;-70
2021/01/01 12:49:17;;;;;;;;;;;7.00;63.60;;;;;;5114027;28;20283;-69
2021/01/01 12:51:44;;;;;;;;;;;7.00;63.40;;;;;;5103728;28;19924;-70
2021/01/01 12:54:10;;;;;;;;;;;6.90;62.80;;;;;;5093700;28;19931;-70
2021/01/01 12:56:36;;;;;;;;;;;6.70;64.00;;;;;;5104623;28;19927;-70
2021/01/01 12:59:03;;;;;;;;;;;6.50;64.50;;;;;;5114272;28;19943;-71
2021/01/01 13:01:33;;;;;;;;;;;6.30;65.80;;;;;;5114445;28;19935;-70
2021/01/01 13:04:00;;;;;;;;;;;6.20;66.50;;;;;;5113829;28;20323;-71
2021/01/01 13:06:26;;;;;;;;;;;6.30;65.80;;;;;;5113711;28;19928;-72
2021/01/01 13:08:57;;;;;;;;;;;6.20;66.30;;;;;;5114468;28;20113;-72
2021/01/01 13:11:43;;;;;;;;;;;5.90;66.80;;;;;;5114118;28;19930;-72
2021/01/01 13:14:09;;;;;;;;;;;5.80;67.40;;;;;;5114561;28;19931;-72
2021/01/01 13:16:36;;;;;;;;;;;5.80;66.90;;;;;;5114692;28;19932;-74
2021/01/01 13:19:02;;;;;;;;;;;6.10;63.90;;;;;;5114684;28;20376;-72
2021/01/01 13:21:29;;;;;;;;;;;6.30;64.70;;;;;;5118790;28;20345;-71
2021/01/01 13:23:55;;;;;;;;;;;6.30;63.00;;;;;;5119266;28;20384;-73
2021/01/01 13:26:22;;;;;;;;;;;6.30;64.70;;;;;;5113434;28;19986;-73
2021/01/01 13:28:48;;;;;;;;;;;6.10;64.10;;;;;;5095567;28;19932;-71
2021/01/01 13:31:15;;;;;;;;;;;6.10;64.70;;;;;;5093434;28;20282;-72
2021/01/01 13:33:42;;;;;;;;;;;6.20;64.10;;;;;;5097104;28;20072;-73
2021/01/01 13:36:13;;;;;;;;;;;6.00;64.10;;;;;;5093678;28;19931;-73
2021/01/01 13:38:40;;;;;;;;;;;6.00;64.20;;;;;;5109764;28;19993;-72
2021/01/01 13:41:09;;;;;;;;;;;5.90;63.10;;;;;;5109816;28;20395;-73
2021/01/01 13:43:40;;;;;;;;;;;6.00;62.50;;;;;;5092734;28;19935;-72
2021/01/01 13:46:07;;;;;;;;;;;5.70;62.60;;;;;;5092921;28;19969;-70
2021/01/01 13:48:34;;;;;;;;;;;5.90;64.50;;;;;;5093029;28;19928;-73
2021/01/01 13:51:01;;;;;;;;;;;6.00;62.20;;;;;;5092407;28;19924;-71
2021/01/01 13:53:27;;;;;;;;;;;5.90;63.80;;;;;;5093326;28;19933;-75
2021/01/01 13:55:54;;;;;;;;;;;5.90;63.80;;;;;;5093453;28;19924;-73
2021/01/01 13:58:21;;;;;;;;;;;5.90;63.90;;;;;;5093028;28;20344;-72
2021/01/01 14:00:51;;;;;;;;;;;5.80;65.40;;;;;;5076191;28;19928;-73
2021/01/01 14:03:18;;;;;;;;;;;5.80;64.80;;;;;;5093398;28;19924;-76
2021/01/01 14:05:50;;;;;;;;;;;5.90;64.50;;;;;;5092882;28;19962;-73
2021/01/01 14:08:17;;;;;;;;;;;5.90;64.80;;;;;;5093082;28;19969;-72
2021/01/01 14:10:44;;;;;;;;;;;5.70;64.40;;;;;;5093263;28;19949;-73
2021/01/01 14:13:10;;;;;;;;;;;5.60;65.10;;;;;;5092798;28;19924;-73
2021/01/01 14:15:37;;;;;;;;;;;5.70;65.00;;;;;;5092170;28;19944;-72
2021/01/01 14:18:04;;;;;;;;;;;5.70;65.40;;;;;;5092595;28;20368;-71
2021/01/01 14:20:31;;;;;;;;;;;5.50;66.20;;;;;;5092352;28;19935;-68
2021/01/01 14:22:57;;;;;;;;;;;5.80;66.20;;;;;;5092729;28;19977;-73
2021/01/01 14:25:24;;;;;;;;;;;5.80;67.00;;;;;;5092405;28;19969;-73
2021/01/01 14:27:50;;;;;;;;;;;5.90;66.60;;;;;;5109930;28;19924;-71
2021/01/01 14:30:17;;;;;;;;;;;6.00;65.50;;;;;;5112683;28;19930;-72
2021/01/01 14:32:43;;;;;;;;;;;6.00;64.80;;;;;;5104194;28;19928;-72
2021/01/01 14:35:13;;;;;;;;;;;6.00;66.30;;;;;;5092024;28;19938;-72
2021/01/01 14:37:40;;;;;;;;;;;6.00;65.20;;;;;;5099541;28;19924;-71
2021/01/01 14:40:07;;;;;;;;;;;6.10;65.10;;;;;;5112625;28;20358;-71
2021/01/01 14:42:34;;;;;;;;;;;6.10;64.60;;;;;;5096248;28;19924;-71
2021/01/01 14:45:00;;;;;;;;;;;6.10;64.20;;;;;;5091573;28;19925;-72
2021/01/01 14:47:26;;;;;;;;;;;6.20;63.30;;;;;;5091903;28;19924;-71
2021/01/01 14:50:06;;;;;;;;;;;6.20;63.90;;;;;;5091440;28;19935;-72
2021/01/01 14:52:32;;;;;;;;;;;6.20;63.00;;;;;;5091325;28;19935;-73
2021/01/01 14:54:58;;;;;;;;;;;6.20;62.20;;;;;;5092129;28;19970;-71
2021/01/01 14:57:25;;;;;;;;;;;6.20;62.40;;;;;;5091966;28;20395;-73
2021/01/01 14:59:51;;;;;;;;;;;6.10;63.10;;;;;;5092250;28;19931;-70
2021/01/01 15:02:17;;;;;;;;;;;6.00;63.00;;;;;;5091743;28;19998;-71
2021/01/01 15:04:43;;;;;;;;;;;5.90;63.80;;;;;;5091528;28;19924;-72
2021/01/01 15:07:10;;;;;;;;;;;5.80;63.40;;;;;;5091162;28;19924;-71
2021/01/01 15:09:36;;;;;;;;;;;6.00;64.20;;;;;;5090738;28;19932;-72
2021/01/01 15:12:02;;;;;;;;;;;6.10;63.00;;;;;;5091186;28;20023;-73
2021/01/01 15:14:29;;;;;;;;;;;6.20;62.60;;;;;;5091590;28;19928;-72
2021/01/01 15:16:55;;;;;;;;;;;5.90;63.20;;;;;;5091055;28;19935;-70
2021/01/01 15:19:21;;;;;;;;;;;5.90;64.20;;;;;;5091122;28;19924;-68
2021/01/01 15:21:48;;;;;;;;;;;6.10;64.10;;;;;;5091214;28;20402;-71
2021/01/01 15:24:15;;;;;;;;;;;6.20;62.30;;;;;;5091289;28;19928;-72
2021/01/01 15:26:42;;;;;;;;;;;6.20;63.60;;;;;;5098839;28;19949;-72
2021/01/01 15:29:09;;;;;;;;;;;6.30;63.00;;;;;;5111465;28;19923;-71
2021/01/01 15:31:35;;;;;;;;;;;6.20;63.30;;;;;;5111455;28;19927;-69
2021/01/01 15:34:03;;;;;;;;;;;6.00;64.30;;;;;;5091889;28;19924;-72
2021/01/01 15:36:29;;;;;;;;;;;5.90;64.60;;;;;;5091179;28;19932;-66
2021/01/01 15:38:56;;;;;;;;;;;5.60;65.80;;;;;;5109102;28;19927;-71
2021/01/01 15:41:23;;;;;;;;;;;5.70;65.40;;;;;;5105009;28;20299;-71